Canvas, WV (26662)

7:43 AM EDT on April 01, 2015 (GMT -0400)
Summersville | | Change Station
CLOSE
Current Station
Personal Weather Station
Location: Summersville, WV
Elevation: 1932 ft
Nearby Weather Stations
Active Advisory: Special Statement

Elev 1932 ft 38.30 °N, 80.84 °W | Updated 14 minutes ago

Clear
Clear
25.9 °F
Feels Like 26 °F
N
0.0
Wind Variable Wind from NNE

Today
High -- | Low -- °F
--% Chance of Precip.
Yesterday
High -- | Low -- °F
Precip. -- in
7:08 AM 7:45 PM
Waxing Gibbous, 92% visible
Pressure 30.05 in
Visibility 10.0 miles
Clouds Clear
Windchill 26 °F
Dew Point 26 °F
Humidity 99%
Rainfall 0.00 in
Snow Depth Not available.
UV 0 out of 12
Pollen 10.20 out of 12
Air Quality Not available.
Flu Activity Not available.
METAR KLWB 011115Z AUTO 00000KT 10SM CLR 00/M01 A3005 RMK AO2 T00011011

More Conditions Fewer Conditions

Pressure 30.05 in
Visibility 10.0 miles
Clouds Clear
Windchill 26 °F
Dew Point 26 °F
Humidity 99%
Rainfall 0.00 in
Snow Depth Not available.
UV 0 out of 12
Pollen 10.20 out of 12
Air Quality Not available.
Flu Activity Not available.
METAR KLWB 011115Z AUTO 00000KT 10SM CLR 00/M01 A3005 RMK AO2 T00011011

More Conditions Fewer Conditions

10-Day Weather Forecast

Almanac

Astronomy

Apr. 01, 2015 Rise Set
Actual Time
Civil Twilight
Nautical Twilight
Astronomical Twilight
Moon
Length of Visible Light
Length of Day
Tomorrow will be .
, % of the Moon is Illuminated

Today's Extremes

State Highs State Lows

Community

WunderPhotos

Upload Photos

1,809,936 photos uploaded!

WunderBlogs® & News

Nearby

Air Quality

  Air Quality AQ Index Pollutant
Not available.

Snow Depth

Station Depth Elevation

Earthquake Activity

City Distance Mag. Time & Date
Minimum magnitude displayed is 2.5.

Coastal Water Temperatures

Place Temperature

Stations

Nearby Weather Stations

Station Location Temp. Windchill Dew Point Humidity Wind Precip. Elev Updated Type
                   
Special Statement
Statement as of 6:04 AM EDT on April 01, 2015

Here is a Special Weather Statement from the National Weather
Service...

Very dry conditions are expected today across most of West
Virginia... creating an elevated wildfire danger.

Open burning of any type is considered dangerous at this
time... and outdoor burning should be avoided. In addition... be
very careful of heat and Sparks while operating any equipment
outdoors... and avoid smoking in wildland areas.

West Virginia state law prohibits burning between the months of
March 1st through may 31st between the hours of 7 am to 5 PM.

If a wildfire should occur... call 911.